Time;durP1;ratioP1;P1;durP2;ratioP2;P2;SDS_P1;SDS_P2;PMS_P1;PMS_P2;Temp;Humidity;BMP_temperature;BMP_pressure;BME280_temperature;BME280_humidity;BME280_pressure;Samples;Min_cycle;Max_cycle;Signal;HPM_P1;HPM_P2
2022/08/21 00:01:54;;;;;;;6.55;5.88;;;17.30;99.90;;;;;;5109664;28;20296;-52
2022/08/21 00:04:23;;;;;;;6.32;5.72;;;17.30;99.90;;;;;;5108946;28;20215;-52
2022/08/21 00:06:59;;;;;;;8.80;5.88;;;17.20;99.90;;;;;;5109682;28;20623;-51
2022/08/21 00:09:27;;;;;;;8.45;6.15;;;17.20;99.90;;;;;;5109056;28;20249;-52
2022/08/21 00:11:55;;;;;;;7.47;6.18;;;17.10;99.90;;;;;;5109184;28;20272;-52
2022/08/21 00:14:23;;;;;;;7.30;6.60;;;17.10;99.90;;;;;;5108830;28;20211;-52
2022/08/21 00:16:51;;;;;;;9.98;6.47;;;17.00;99.90;;;;;;5108605;28;20622;-52
2022/08/21 00:19:24;;;;;;;6.70;6.00;;;16.90;99.90;;;;;;5109443;28;20203;-52
2022/08/21 00:21:52;;;;;;;9.65;6.80;;;16.90;99.90;;;;;;5108539;28;20785;-51
2022/08/21 00:24:23;;;;;;;6.90;6.00;;;16.90;99.90;;;;;;5109057;28;20211;-52
2022/08/21 00:26:52;;;;;;;8.90;5.80;;;16.80;99.90;;;;;;5109841;28;20261;-51
2022/08/21 00:29:20;;;;;;;6.75;5.60;;;16.80;99.90;;;;;;5107751;28;20207;-51
2022/08/21 00:31:48;;;;;;;6.57;5.50;;;16.70;99.90;;;;;;5107888;28;20239;-51
2022/08/21 00:34:16;;;;;;;10.93;6.22;;;16.70;99.90;;;;;;5103774;28;20685;-51
2022/08/21 00:36:44;;;;;;;8.57;6.13;;;16.60;99.90;;;;;;5107679;28;20264;-52
2022/08/21 00:39:12;;;;;;;11.05;5.75;;;16.50;99.90;;;;;;5107171;28;20680;-53
2022/08/21 00:41:42;;;;;;;8.00;6.05;;;16.50;99.90;;;;;;5106518;28;20316;-52
2022/08/21 00:44:13;;;;;;;7.38;5.88;;;16.40;99.90;;;;;;5106712;28;20211;-52
2022/08/21 00:46:43;;;;;;;8.00;5.85;;;16.40;99.90;;;;;;5106704;28;20239;-52
2022/08/21 00:49:12;;;;;;;9.55;6.20;;;16.40;99.90;;;;;;5107462;28;20260;-52
2022/08/21 00:51:45;;;;;;;6.95;5.70;;;16.40;99.90;;;;;;5108311;28;20204;-52
2022/08/21 00:54:13;;;;;;;9.88;5.80;;;16.40;99.90;;;;;;5111876;28;20215;-51
2022/08/21 00:57:01;;;;;;;6.28;5.53;;;16.30;99.90;;;;;;5112519;28;20199;-52
2022/08/21 00:59:30;;;;;;;8.65;5.53;;;16.30;99.90;;;;;;5112687;28;20207;-53
2022/08/21 01:01:58;;;;;;;7.90;5.70;;;16.30;99.90;;;;;;5112103;28;20724;-52
2022/08/21 01:04:27;;;;;;;8.27;5.43;;;16.20;99.90;;;;;;5111801;28;20237;-52
2022/08/21 01:06:55;;;;;;;6.97;5.20;;;16.20;99.90;;;;;;5112680;28;20211;-52
2022/08/21 01:09:23;;;;;;;9.13;5.85;;;16.20;99.90;;;;;;5111795;28;20211;-52
2022/08/21 01:11:53;;;;;;;8.60;6.20;;;16.10;99.90;;;;;;5112441;28;20784;-52
2022/08/21 01:14:21;;;;;;;7.45;5.97;;;16.10;99.90;;;;;;5112381;28;20237;-52
2022/08/21 01:16:52;;;;;;;9.57;6.00;;;16.00;99.90;;;;;;5112068;28;20282;-50
2022/08/21 01:19:22;;;;;;;7.35;5.70;;;16.10;99.90;;;;;;5111266;28;20207;-51
2022/08/21 01:21:53;;;;;;;9.75;5.75;;;16.00;99.90;;;;;;5111946;28;20223;-52
2022/08/21 01:24:22;;;;;;;7.32;5.43;;;16.00;99.90;;;;;;5112140;28;20208;-52
2022/08/21 01:26:51;;;;;;;8.32;5.95;;;16.10;99.90;;;;;;5112143;28;20729;-52
2022/08/21 01:29:30;;;;;;;10.35;5.50;;;16.10;99.90;;;;;;5111010;28;20261;-52
2022/08/21 01:31:58;;;;;;;7.28;6.13;;;16.10;99.90;;;;;;5116866;27;20280;-52
2022/08/21 01:34:26;;;;;;;10.25;6.10;;;16.00;99.90;;;;;;5121993;27;20256;-52
2022/08/21 01:36:56;;;;;;;9.98;6.53;;;16.00;99.90;;;;;;5123171;27;20198;-52
2022/08/21 01:39:24;;;;;;;8.55;6.05;;;16.00;99.90;;;;;;5129564;27;20256;-52
2022/08/21 01:41:52;;;;;;;8.60;6.10;;;15.90;99.90;;;;;;5131682;27;20648;-52
2022/08/21 01:44:22;;;;;;;9.15;6.32;;;15.90;99.90;;;;;;5131235;27;20335;-52
2022/08/21 01:46:50;;;;;;;10.80;6.40;;;15.90;99.90;;;;;;5120397;27;20267;-52
2022/08/21 01:49:18;;;;;;;8.02;6.38;;;15.80;99.90;;;;;;5129073;27;20194;-52
2022/08/21 01:51:47;;;;;;;8.38;6.45;;;15.80;99.90;;;;;;5127461;27;20249;-52
2022/08/21 01:54:16;;;;;;;10.00;6.72;;;15.80;99.90;;;;;;5114765;27;20264;-52
2022/08/21 01:56:47;;;;;;;10.20;5.95;;;15.70;99.90;;;;;;5124318;27;20203;-51
2022/08/21 01:59:15;;;;;;;10.13;6.40;;;15.70;99.90;;;;;;5129099;27;20252;-52
2022/08/21 02:01:43;;;;;;;10.88;6.70;;;15.70;99.90;;;;;;5129832;27;20984;-52
2022/08/21 02:04:11;;;;;;;9.95;6.57;;;15.60;99.90;;;;;;5121416;27;20211;-52
2022/08/21 02:06:40;;;;;;;10.30;6.90;;;15.60;99.90;;;;;;5126672;27;20276;-52
2022/08/21 02:09:10;;;;;;;11.90;6.60;;;15.50;99.90;;;;;;5128254;27;20222;-52
2022/08/21 02:11:40;;;;;;;7.22;6.05;;;15.60;99.90;;;;;;5122744;27;20660;-52
2022/08/21 02:14:09;;;;;;;10.88;7.05;;;15.50;99.90;;;;;;5123390;27;20335;-52
2022/08/21 02:16:37;;;;;;;9.40;6.70;;;15.60;99.90;;;;;;5120369;27;20253;-52
2022/08/21 02:19:05;;;;;;;9.15;6.60;;;15.60;99.90;;;;;;5125281;27;20203;-52
2022/08/21 02:21:35;;;;;;;8.67;6.43;;;15.60;99.90;;;;;;5128228;27;20295;-52
2022/08/21 02:24:03;;;;;;;9.20;6.28;;;15.60;99.90;;;;;;5124889;27;20207;-52
2022/08/21 02:26:31;;;;;;;8.15;6.03;;;15.60;99.90;;;;;;5110931;28;20661;-52
2022/08/21 02:29:01;;;;;;;8.73;6.40;;;15.60;99.90;;;;;;5111066;28;20759;-51
2022/08/21 02:31:29;;;;;;;12.60;7.20;;;15.50;99.90;;;;;;5126003;27;20252;-52
2022/08/21 02:33:58;;;;;;;9.25;6.05;;;15.50;99.90;;;;;;5118623;27;20211;-52
2022/08/21 02:36:27;;;;;;;8.75;6.85;;;15.50;99.90;;;;;;5130526;27;20747;-52
2022/08/21 02:38:56;;;;;;;12.13;7.83;;;15.40;99.90;;;;;;5131631;27;20271;-52
2022/08/21 02:41:24;;;;;;;11.27;6.63;;;15.40;99.90;;;;;;5131123;27;20230;-52
2022/08/21 02:43:52;;;;;;;12.68;7.07;;;15.30;99.90;;;;;;5130868;27;20244;-52
2022/08/21 02:46:22;;;;;;;9.50;7.40;;;15.30;99.90;;;;;;5131181;27;20203;-52
2022/08/21 02:48:50;;;;;;;8.53;7.67;;;15.30;99.90;;;;;;5130166;27;20226;-51
2022/08/21 02:51:22;;;;;;;10.00;7.10;;;15.30;99.90;;;;;;5131428;27;20599;-52
2022/08/21 02:53:50;;;;;;;12.18;7.40;;;15.30;99.90;;;;;;5130489;27;20226;-52
2022/08/21 02:56:20;;;;;;;9.77;7.33;;;15.20;99.90;;;;;;5130959;27;20203;-52
2022/08/21 02:58:51;;;;;;;11.37;8.23;;;15.20;99.90;;;;;;5130339;27;20207;-52
2022/08/21 03:01:19;;;;;;;10.20;8.47;;;15.20;99.90;;;;;;5130593;27;20304;-52
2022/08/21 03:03:50;;;;;;;11.13;9.17;;;15.10;99.90;;;;;;5115617;27;20227;-52
2022/08/21 03:06:21;;;;;;;11.27;9.47;;;15.10;99.90;;;;;;5130777;27;20191;-51
2022/08/21 03:08:50;;;;;;;11.53;9.27;;;15.10;99.90;;;;;;5130800;27;20699;-51
2022/08/21 03:11:18;;;;;;;10.53;8.50;;;15.10;99.90;;;;;;5130233;27;20222;-52
2022/08/21 03:13:46;;;;;;;12.77;9.87;;;15.10;99.90;;;;;;5130131;27;20227;-51
2022/08/21 03:16:15;;;;;;;12.52;8.70;;;15.10;99.90;;;;;;5129591;27;20736;-52
2022/08/21 03:18:43;;;;;;;12.83;9.50;;;15.00;99.90;;;;;;5124177;27;20206;-52
2022/08/21 03:21:12;;;;;;;10.77;8.33;;;15.00;99.90;;;;;;5130355;27;20699;-52
2022/08/21 03:23:41;;;;;;;11.37;10.10;;;15.00;99.90;;;;;;5130029;27;20234;-52
2022/08/21 03:26:11;;;;;;;16.08;10.50;;;15.00;99.90;;;;;;5129902;27;20217;-52
2022/08/21 03:28:39;;;;;;;13.07;11.47;;;15.00;99.90;;;;;;5126449;27;20683;-51
2022/08/21 03:31:08;;;;;;;11.43;10.33;;;14.90;99.90;;;;;;5120476;27;20655;-52
2022/08/21 03:33:36;;;;;;;13.07;10.23;;;14.90;99.90;;;;;;5106340;28;20266;-52
2022/08/21 03:36:07;;;;;;;12.93;9.90;;;14.90;99.90;;;;;;5109540;28;20229;-51
2022/08/21 03:38:38;;;;;;;13.07;9.88;;;14.90;99.90;;;;;;5109882;28;20211;-51
2022/08/21 03:41:07;;;;;;;11.37;8.87;;;14.90;99.90;;;;;;5108849;28;20199;-52
2022/08/21 03:43:35;;;;;;;12.90;9.27;;;14.90;99.90;;;;;;5109987;28;20251;-51
2022/08/21 03:46:06;;;;;;;13.30;10.07;;;14.90;99.90;;;;;;5109907;28;20203;-52
2022/08/21 03:48:36;;;;;;;14.90;10.07;;;14.90;99.90;;;;;;5109256;28;20614;-51
2022/08/21 03:51:06;;;;;;;15.00;10.87;;;14.90;99.90;;;;;;5109909;28;20188;-52
2022/08/21 03:53:36;;;;;;;14.50;10.37;;;14.90;99.90;;;;;;5109400;28;20258;-52
2022/08/21 03:56:05;;;;;;;15.67;12.30;;;14.80;99.90;;;;;;5109223;28;20730;-52
2022/08/21 03:58:33;;;;;;;18.13;11.73;;;14.80;99.90;;;;;;5109682;28;20231;-52
2022/08/21 04:01:01;;;;;;;14.50;11.53;;;14.80;99.90;;;;;;5109628;28;20668;-52
2022/08/21 04:03:29;;;;;;;16.03;11.50;;;14.70;99.90;;;;;;5109148;28;20262;-52
2022/08/21 04:05:58;;;;;;;12.57;9.70;;;14.70;99.90;;;;;;5110986;28;20237;-52
2022/08/21 04:08:26;;;;;;;13.67;9.90;;;14.70;99.90;;;;;;5109948;28;20215;-52
2022/08/21 04:10:57;;;;;;;14.47;10.53;;;14.70;99.90;;;;;;5108950;28;20257;-52
2022/08/21 04:13:27;;;;;;;12.40;10.77;;;14.70;99.90;;;;;;5109470;28;20276;-52
2022/08/21 04:15:57;;;;;;;13.90;11.07;;;14.60;99.90;;;;;;5110110;28;20211;-51
2022/08/21 04:18:25;;;;;;;17.23;12.57;;;14.60;99.90;;;;;;5108836;28;20220;-51
2022/08/21 04:20:56;;;;;;;14.77;11.53;;;14.60;99.90;;;;;;5109564;28;20782;-52
2022/08/21 04:23:25;;;;;;;17.33;12.60;;;14.60;99.90;;;;;;5108404;28;20236;-51
2022/08/21 04:25:56;;;;;;;19.73;13.13;;;14.60;99.90;;;;;;5109354;28;20211;-52
2022/08/21 04:28:26;;;;;;;15.90;12.90;;;14.60;99.90;;;;;;5107608;28;20208;-52
2022/08/21 04:30:57;;;;;;;16.57;13.37;;;14.60;99.90;;;;;;5111413;28;20585;-52
2022/08/21 04:33:25;;;;;;;17.27;13.13;;;14.60;99.90;;;;;;5105120;28;20265;-52
2022/08/21 04:35:54;;;;;;;17.40;14.03;;;14.70;99.90;;;;;;5111425;28;20235;-51
2022/08/21 04:38:22;;;;;;;18.63;12.80;;;14.70;99.90;;;;;;5112088;28;20211;-51
2022/08/21 04:40:52;;;;;;;15.23;13.07;;;14.70;99.90;;;;;;5111382;28;20276;-52
2022/08/21 04:43:23;;;;;;;17.33;13.43;;;14.70;99.90;;;;;;5111779;28;20331;-52
2022/08/21 04:45:53;;;;;;;20.77;14.57;;;14.70;99.90;;;;;;5112770;28;20208;-52
2022/08/21 04:48:23;;;;;;;20.77;13.53;;;14.70;99.90;;;;;;5112712;28;20256;-52
2022/08/21 04:50:57;;;;;;;17.50;14.27;;;14.70;99.90;;;;;;5112947;28;20200;-53
2022/08/21 04:53:31;;;;;;;20.50;12.90;;;14.80;99.90;;;;;;5103887;28;20223;-52
2022/08/21 04:56:07;;;;;;;16.93;13.33;;;14.90;99.90;;;;;;5110246;28;20276;-52
2022/08/21 04:58:39;;;;;;;17.03;12.50;;;15.20;99.90;;;;;;5111966;28;20261;-52
2022/08/21 05:01:11;;;;;;;15.17;12.07;;;15.50;99.90;;;;;;5112474;28;20284;-51
2022/08/21 05:03:40;;;;;;;16.05;12.07;;;15.70;99.90;;;;;;5111944;28;20223;-52
2022/08/21 05:06:13;;;;;;;12.38;10.70;;;16.00;99.90;;;;;;5123530;27;20206;-51
2022/08/21 05:08:43;;;;;;;13.70;10.98;;;16.10;99.90;;;;;;5132687;27;20280;-51
2022/08/21 05:11:11;;;;;;;15.07;10.82;;;16.20;99.90;;;;;;5132219;27;20255;-53
2022/08/21 05:13:41;;;;;;;14.55;10.15;;;16.40;99.90;;;;;;5132503;27;20279;-52
2022/08/21 05:16:09;;;;;;;12.32;9.45;;;16.50;99.90;;;;;;5131931;27;20207;-52
2022/08/21 05:18:37;;;;;;;14.70;10.32;;;16.50;99.90;;;;;;5126110;27;20207;-52
2022/08/21 05:21:06;;;;;;;10.88;9.18;;;16.40;99.90;;;;;;5131858;27;20255;-52
2022/08/21 05:23:34;;;;;;;13.73;9.70;;;16.60;99.90;;;;;;5131932;27;20703;-52
2022/08/21 05:26:04;;;;;;;11.07;9.35;;;16.90;99.90;;;;;;5131860;27;20259;-52
2022/08/21 05:28:33;;;;;;;14.32;9.50;;;17.20;99.90;;;;;;5129887;27;20291;-52
2022/08/21 05:31:02;;;;;;;10.13;9.07;;;17.40;99.90;;;;;;5118955;27;20673;-52
2022/08/21 05:33:31;;;;;;;10.45;8.85;;;17.20;99.90;;;;;;5106835;28;20223;-52
2022/08/21 05:36:03;;;;;;;14.82;9.48;;;17.10;99.90;;;;;;5111352;28;20207;-52
2022/08/21 05:38:31;;;;;;;12.68;9.90;;;17.20;99.90;;;;;;5120632;27;20252;-52
2022/08/21 05:40:59;;;;;;;12.60;9.68;;;17.00;99.90;;;;;;5126072;27;20264;-51
2022/08/21 05:43:27;;;;;;;10.07;8.73;;;16.90;99.90;;;;;;5126616;27;20250;-52
2022/08/21 05:45:55;;;;;;;11.32;9.45;;;16.90;99.90;;;;;;5127699;27;20248;-52
2022/08/21 05:48:25;;;;;;;11.35;9.20;;;16.90;99.90;;;;;;5123416;27;20238;-53
2022/08/21 05:50:54;;;;;;;12.77;9.30;;;17.00;99.90;;;;;;5128083;27;20199;-52
2022/08/21 05:53:24;;;;;;;11.15;8.68;;;17.00;99.90;;;;;;5125218;27;20218;-52
2022/08/21 05:55:53;;;;;;;10.75;9.02;;;17.00;99.90;;;;;;5127665;27;20198;-53
2022/08/21 05:58:23;;;;;;;10.68;8.75;;;16.90;99.90;;;;;;5124514;27;20199;-53
2022/08/21 06:00:52;;;;;;;13.18;8.35;;;16.90;99.90;;;;;;5129674;27;20259;-53
2022/08/21 06:03:26;;;;;;;11.77;8.90;;;16.90;99.90;;;;;;5124986;27;20250;-53
2022/08/21 06:05:55;;;;;;;10.93;9.15;;;17.00;99.90;;;;;;5122960;27;20211;-53
2022/08/21 06:08:25;;;;;;;9.82;8.25;;;17.10;99.90;;;;;;5128180;27;20363;-52
2022/08/21 06:10:55;;;;;;;10.30;8.27;;;17.10;99.90;;;;;;5119537;27;20261;-53
2022/08/21 06:13:24;;;;;;;13.38;9.07;;;17.20;99.90;;;;;;5126103;27;20245;-53
2022/08/21 06:16:02;;;;;;;12.00;8.07;;;17.30;99.90;;;;;;5123669;27;20211;-52
2022/08/21 06:18:32;;;;;;;15.50;8.38;;;17.60;99.90;;;;;;5108428;27;20248;-53
2022/08/21 06:21:00;;;;;;;11.82;7.97;;;18.00;99.90;;;;;;5110294;28;20747;-53
2022/08/21 06:23:29;;;;;;;10.35;8.18;;;18.50;99.90;;;;;;5115529;27;20231;-53
2022/08/21 06:26:00;;;;;;;15.85;8.73;;;19.10;99.90;;;;;;5122228;27;20199;-53
2022/08/21 06:28:29;;;;;;;9.73;7.32;;;19.50;99.90;;;;;;5117200;27;20548;-52
2022/08/21 06:30:57;;;;;;;13.50;8.13;;;19.90;99.90;;;;;;5109345;28;20204;-53
2022/08/21 06:33:25;;;;;;;9.90;7.93;;;20.30;99.90;;;;;;5112635;27;20605;-53
2022/08/21 06:36:00;;;;;;;8.90;8.00;;;20.90;99.90;;;;;;5108653;27;20203;-53
2022/08/21 06:38:28;;;;;;;8.93;7.82;;;21.10;99.90;;;;;;5115027;27;20287;-53
2022/08/21 06:40:58;;;;;;;10.45;7.72;;;21.40;99.90;;;;;;5107736;28;20584;-52
2022/08/21 06:43:27;;;;;;;12.55;8.65;;;21.60;99.90;;;;;;5109907;27;20227;-53
2022/08/21 06:46:07;;;;;;;11.07;7.53;;;21.80;99.90;;;;;;5108512;28;20200;-53
2022/08/21 06:48:35;;;;;;;10.35;7.25;;;22.20;99.90;;;;;;5107360;28;20207;-52
2022/08/21 06:51:05;;;;;;;10.20;7.75;;;22.40;99.90;;;;;;5108788;28;20686;-54
2022/08/21 06:53:33;;;;;;;12.38;8.75;;;22.60;99.90;;;;;;5109574;28;20280;-53
2022/08/21 06:56:02;;;;;;;10.07;8.70;;;22.70;99.90;;;;;;5108638;28;20308;-52
2022/08/21 06:58:30;;;;;;;10.80;8.63;;;23.00;99.90;;;;;;5117002;27;20673;-54
2022/08/21 07:00:59;;;;;;;13.75;8.68;;;23.20;99.90;;;;;;5112502;27;20257;-52
2022/08/21 07:03:30;;;;;;;14.23;8.85;;;23.20;99.90;;;;;;5109554;28;20235;-53
2022/08/21 07:05:59;;;;;;;10.75;9.00;;;23.30;99.90;;;;;;5111251;27;20298;-52
2022/08/21 07:08:29;;;;;;;13.68;8.65;;;23.30;99.90;;;;;;5118383;27;20211;-51
2022/08/21 07:10:59;;;;;;;12.02;8.82;;;23.50;99.90;;;;;;5113990;27;20203;-52
2022/08/21 07:13:28;;;;;;;8.88;7.82;;;23.80;99.90;;;;;;5116160;27;20223;-53
2022/08/21 07:15:56;;;;;;;11.93;8.50;;;23.80;99.90;;;;;;5112721;27;20211;-53
2022/08/21 07:18:30;;;;;;;9.60;8.55;;;24.00;99.90;;;;;;5107908;27;20336;-53
2022/08/21 07:20:58;;;;;;;9.23;7.75;;;24.00;99.90;;;;;;5111873;27;20257;-53
2022/08/21 07:23:32;;;;;;;10.02;8.00;;;24.10;99.90;;;;;;5111564;27;20232;-53
2022/08/21 07:26:01;;;;;;;11.63;8.35;;;24.20;99.90;;;;;;5114446;27;20203;-52
2022/08/21 07:28:30;;;;;;;11.00;8.40;;;24.20;99.90;;;;;;5118880;27;20261;-53
2022/08/21 07:31:00;;;;;;;10.45;7.40;;;24.30;99.90;;;;;;5112385;27;20288;-53
2022/08/21 07:33:30;;;;;;;12.65;7.20;;;24.40;99.90;;;;;;5112034;27;20235;-52
2022/08/21 07:35:59;;;;;;;9.07;6.97;;;24.80;99.90;;;;;;5111700;27;20216;-53
2022/08/21 07:38:29;;;;;;;11.23;6.63;;;24.90;99.90;;;;;;5125677;27;20236;-52
2022/08/21 07:41:00;;;;;;;9.35;6.50;;;24.80;99.90;;;;;;5111453;28;20214;-52
2022/08/21 07:43:29;;;;;;;9.85;6.72;;;25.10;99.90;;;;;;5098752;28;20693;-52
2022/08/21 07:45:57;;;;;;;10.13;6.00;;;25.20;99.90;;;;;;5108252;28;20233;-52
2022/08/21 07:48:26;;;;;;;9.10;5.57;;;25.20;99.90;;;;;;5120489;28;20624;-52
2022/08/21 07:50:55;;;;;;;12.00;6.55;;;25.30;99.90;;;;;;5109476;28;20207;-53
2022/08/21 07:53:23;;;;;;;13.05;6.28;;;25.20;99.90;;;;;;5108324;28;20235;-52
2022/08/21 07:55:53;;;;;;;8.27;5.50;;;25.30;99.90;;;;;;5105227;28;20239;-52
2022/08/21 07:58:21;;;;;;;9.82;5.90;;;25.40;99.90;;;;;;5115724;28;20252;-52
2022/08/21 08:00:49;;;;;;;11.43;5.82;;;25.60;99.90;;;;;;5107886;28;20215;-52
2022/08/21 08:03:18;;;;;;;10.50;6.00;;;25.80;99.90;;;;;;5104232;28;20220;-52
2022/08/21 08:05:56;;;;;;;10.95;5.38;;;25.60;99.90;;;;;;5117387;27;20224;-52
2022/08/21 08:08:25;;;;;;;9.20;5.07;;;25.30;99.90;;;;;;5129542;27;20210;-52
2022/08/21 08:10:58;;;;;;;8.85;4.53;;;25.30;99.90;;;;;;5114455;27;20209;-52
2022/08/21 08:13:27;;;;;;;11.40;5.65;;;25.20;99.90;;;;;;5112590;27;20227;-53
2022/08/21 08:15:55;;;;;;;13.75;6.38;;;25.20;99.90;;;;;;5113678;27;20200;-53
2022/08/21 08:18:23;;;;;;;13.75;7.22;;;25.10;99.90;;;;;;5107749;27;20276;-53
2022/08/21 08:20:52;;;;;;;12.15;7.53;;;25.20;99.90;;;;;;5115531;27;20635;-53
2022/08/21 08:23:20;;;;;;;16.63;7.03;;;25.10;99.90;;;;;;5112028;27;20223;-52
2022/08/21 08:25:48;;;;;;;13.10;6.47;;;25.00;99.90;;;;;;5104984;28;20269;-52
2022/08/21 08:28:18;;;;;;;13.43;7.18;;;25.00;99.90;;;;;;5119265;27;20261;-52
2022/08/21 08:30:47;;;;;;;12.02;7.22;;;25.10;99.90;;;;;;5112040;28;20692;-52
2022/08/21 08:33:16;;;;;;;12.60;6.68;;;25.00;99.90;;;;;;5114180;27;20223;-53
2022/08/21 08:35:47;;;;;;;15.20;6.45;;;25.00;99.90;;;;;;5112352;28;20207;-53
2022/08/21 08:38:18;;;;;;;8.88;5.53;;;24.80;99.90;;;;;;5122322;27;20288;-53
2022/08/21 08:40:54;;;;;;;12.88;6.32;;;24.90;99.90;;;;;;5112468;28;20703;-53
2022/08/21 08:43:23;;;;;;;9.70;5.53;;;24.50;99.90;;;;;;5111732;28;20226;-53
2022/08/21 08:45:57;;;;;;;12.48;6.28;;;24.30;99.90;;;;;;5112549;28;20232;-53
2022/08/21 08:48:39;;;;;;;14.85;5.53;;;24.30;99.90;;;;;;5111608;28;20219;-53
2022/08/21 08:51:15;;;;;;;11.18;5.47;;;24.40;99.90;;;;;;5112412;28;20206;-53
2022/08/21 08:53:50;;;;;;;11.68;5.15;;;24.40;99.90;;;;;;5111472;28;20219;-53
2022/08/21 08:56:24;;;;;;;10.35;5.60;;;24.40;99.90;;;;;;5107030;28;20248;-53
2022/08/21 08:58:54;;;;;;;10.32;5.32;;;24.20;99.90;;;;;;5112041;28;20211;-52
2022/08/21 09:01:22;;;;;;;10.95;5.55;;;24.00;99.90;;;;;;5112337;28;20215;-53
2022/08/21 09:03:53;;;;;;;9.30;4.85;;;24.30;99.90;;;;;;5112093;28;20223;-52
2022/08/21 09:06:38;;;;;;;9.45;4.97;;;24.50;99.90;;;;;;5115238;27;20204;-53
2022/08/21 09:09:17;;;;;;;11.57;5.75;;;24.60;99.90;;;;;;5110179;27;20211;-53
2022/08/21 09:11:53;;;;;;;17.40;6.00;;;24.60;99.90;;;;;;5112817;27;20272;-52
2022/08/21 09:14:33;;;;;;;8.77;4.82;;;24.60;99.90;;;;;;5111537;28;20543;-53
2022/08/21 09:17:24;;;;;;;12.75;5.28;;;24.80;99.90;;;;;;5113490;27;20207;-53
2022/08/21 09:20:03;;;;;;;8.63;4.78;;;24.90;99.90;;;;;;5104887;28;20203;-52
2022/08/21 09:22:39;;;;;;;9.30;5.20;;;24.90;99.90;;;;;;5111001;28;20227;-52
2022/08/21 09:25:16;;;;;;;14.32;4.97;;;24.90;99.90;;;;;;5109171;28;20223;-53
2022/08/21 09:27:44;;;;;;;11.43;5.25;;;25.00;99.90;;;;;;5117586;27;20256;-52
2022/08/21 09:30:14;;;;;;;10.05;5.25;;;25.00;99.90;;;;;;5111104;28;20204;-53
2022/08/21 09:32:43;;;;;;;10.45;4.60;;;25.10;99.90;;;;;;5114030;27;20227;-53
2022/08/21 09:35:14;;;;;;;11.93;4.55;;;25.10;99.90;;;;;;5111059;28;20192;-53
2022/08/21 09:37:51;;;;;;;8.73;4.43;;;25.10;99.90;;;;;;5120470;27;20210;-53
2022/08/21 09:40:32;;;;;;;8.60;4.10;;;25.10;99.90;;;;;;5110312;28;20945;-53
2022/08/21 09:43:04;;;;;;;9.73;4.78;;;25.10;99.90;;;;;;5110293;28;20668;-53
2022/08/21 09:45:34;;;;;;;8.70;4.43;;;25.00;99.90;;;;;;5107600;28;20235;-53
2022/08/21 09:48:14;;;;;;;8.32;4.28;;;25.00;99.90;;;;;;5122978;27;20214;-53
2022/08/21 09:50:44;;;;;;;8.60;4.03;;;25.10;99.90;;;;;;5118752;27;20210;-53
2022/08/21 09:53:21;;;;;;;10.32;4.68;;;25.20;99.90;;;;;;5115627;27;20310;-53
2022/08/21 09:58:42;;;;;;;10.32;4.10;;;25.10;99.90;;;;;;5110269;28;20253;-53
2022/08/21 10:01:18;;;;;;;8.40;4.43;;;25.30;99.90;;;;;;5100430;28;20200;-52
2022/08/21 10:03:50;;;;;;;8.70;4.15;;;25.40;99.90;;;;;;5118181;27;20310;-53
2022/08/21 10:06:25;;;;;;;8.07;4.43;;;25.40;99.90;;;;;;5103959;28;20272;-53
2022/08/21 10:09:06;;;;;;;7.63;4.13;;;25.20;99.60;;;;;;5110445;28;20223;-53
2022/08/21 10:11:35;;;;;;;7.65;3.92;;;25.10;99.90;;;;;;5100641;27;20228;-52
2022/08/21 10:14:13;;;;;;;8.98;4.20;;;25.20;99.90;;;;;;5095920;27;20208;-52
2022/08/21 10:16:52;;;;;;;7.82;4.00;;;25.20;99.90;;;;;;5109320;28;20191;-53
2022/08/21 10:19:27;;;;;;;7.35;3.95;;;25.10;99.90;;;;;;5110092;28;20248;-53
2022/08/21 10:22:03;;;;;;;5.80;3.45;;;25.20;99.90;;;;;;5110175;28;20234;-53
2022/08/21 10:24:38;;;;;;;6.20;4.00;;;25.30;99.90;;;;;;5110037;28;20211;-53
2022/08/21 10:27:23;;;;;;;6.60;3.83;;;25.30;99.90;;;;;;5109919;28;20196;-52
2022/08/21 10:29:56;;;;;;;6.45;3.53;;;25.30;99.70;;;;;;5104384;28;20215;-53
2022/08/21 10:32:51;;;;;;;6.47;3.28;;;25.40;99.90;;;;;;5109579;28;20231;-52
2022/08/21 10:35:24;;;;;;;6.68;3.58;;;25.50;99.90;;;;;;5104934;28;20238;-52
2022/08/21 10:38:17;;;;;;;7.28;3.00;;;25.60;99.10;;;;;;5109812;28;20203;-53
2022/08/21 10:41:14;;;;;;;4.90;3.00;;;25.30;98.30;;;;;;5109131;28;20318;-51
2022/08/21 10:43:52;;;;;;;7.63;3.58;;;25.40;99.90;;;;;;5113508;27;20289;-53
2022/08/21 10:46:42;;;;;;;7.70;3.55;;;25.60;99.40;;;;;;5119913;27;20264;-53
2022/08/21 10:49:21;;;;;;;5.82;3.83;;;25.50;99.40;;;;;;5095622;28;20208;-53
2022/08/21 10:52:01;;;;;;;6.30;3.50;;;25.50;99.00;;;;;;5107162;28;20204;-53
2022/08/21 10:54:36;;;;;;;7.95;3.70;;;25.50;99.90;;;;;;5107575;28;20714;-53
2022/08/21 10:57:10;;;;;;;5.38;3.17;;;25.60;99.60;;;;;;5109074;28;20264;-52
2022/08/21 10:59:44;;;;;;;6.57;3.63;;;25.80;99.90;;;;;;5108078;28;20206;-52
2022/08/21 11:02:20;;;;;;;8.90;3.83;;;25.70;99.30;;;;;;5114785;27;20252;-52
2022/08/21 11:04:56;;;;;;;7.95;3.83;;;25.80;99.20;;;;;;5119310;27;20952;-53
2022/08/21 11:07:29;;;;;;;7.55;3.58;;;25.90;99.60;;;;;;5109048;28;20257;-53
2022/08/21 11:10:07;;;;;;;7.40;3.25;;;25.80;98.50;;;;;;5109618;28;20230;-53
2022/08/21 11:12:42;;;;;;;7.30;4.05;;;25.80;97.90;;;;;;5109132;28;20246;-53
2022/08/21 11:15:25;;;;;;;6.22;3.35;;;25.80;98.00;;;;;;5109874;28;20206;-52
2022/08/21 11:18:03;;;;;;;5.80;3.42;;;25.70;98.30;;;;;;5108412;28;20211;-53
2022/08/21 11:20:41;;;;;;;7.20;3.20;;;25.80;99.30;;;;;;5106975;28;20203;-54
2022/08/21 11:23:17;;;;;;;8.95;3.50;;;26.00;99.40;;;;;;5107945;28;20223;-52
2022/08/21 11:25:51;;;;;;;10.30;3.55;;;26.00;98.70;;;;;;5107390;28;20268;-53
2022/08/21 11:28:24;;;;;;;6.05;3.17;;;26.00;98.70;;;;;;5104405;28;20200;-53
2022/08/21 11:31:04;;;;;;;4.25;2.90;;;25.90;97.00;;;;;;5107403;28;20284;-52
2022/08/21 11:33:46;;;;;;;5.28;3.28;;;26.00;97.80;;;;;;5105454;28;20223;-53
2022/08/21 11:36:25;;;;;;;7.55;3.22;;;26.10;97.90;;;;;;5108134;28;20266;-52
2022/08/21 11:39:02;;;;;;;6.28;3.38;;;26.20;97.80;;;;;;5108913;28;20253;-52
2022/08/21 11:41:38;;;;;;;7.70;3.40;;;26.30;98.00;;;;;;5108823;28;20279;-52
2022/08/21 11:44:15;;;;;;;6.72;3.70;;;26.30;96.60;;;;;;5109513;28;20207;-53
2022/08/21 11:46:50;;;;;;;4.25;3.13;;;26.30;95.90;;;;;;5124522;28;20227;-53
2022/08/21 11:49:35;;;;;;;5.82;3.28;;;26.30;96.00;;;;;;5123095;28;20255;-53
2022/08/21 11:52:14;;;;;;;5.15;2.92;;;26.20;96.40;;;;;;5121474;28;20227;-53
2022/08/21 11:54:47;;;;;;;4.90;3.28;;;26.20;97.10;;;;;;5124160;28;20202;-53
2022/08/21 11:57:21;;;;;;;5.40;3.05;;;26.10;97.40;;;;;;5123751;28;20203;-53
2022/08/21 11:59:56;;;;;;;8.15;3.20;;;25.90;97.40;;;;;;5123015;28;20293;-53
2022/08/21 12:02:30;;;;;;;5.53;3.15;;;25.90;97.20;;;;;;5109668;28;21065;-52
2022/08/21 12:05:02;;;;;;;7.32;3.30;;;25.80;98.10;;;;;;5118858;28;20206;-53
2022/08/21 12:07:40;;;;;;;4.70;3.10;;;25.60;96.70;;;;;;5128695;28;20226;-53
2022/08/21 12:10:11;;;;;;;5.20;3.35;;;25.70;97.10;;;;;;5129499;28;20620;-52
2022/08/21 12:12:42;;;;;;;4.40;3.08;;;25.80;96.90;;;;;;5128984;28;20287;-53
2022/08/21 12:15:26;;;;;;;4.32;3.00;;;25.90;96.10;;;;;;5128918;28;20842;-52
2022/08/21 12:17:58;;;;;;;5.68;3.38;;;26.00;96.80;;;;;;5129205;28;20748;-53
2022/08/21 12:20:42;;;;;;;6.10;3.10;;;26.10;96.40;;;;;;5129060;28;20207;-52
2022/08/21 12:23:30;;;;;;;5.45;3.03;;;26.10;95.30;;;;;;5128941;28;20770;-54
2022/08/21 12:26:27;;;;;;;4.68;3.08;;;26.10;96.40;;;;;;5128680;28;20227;-53
2022/08/21 12:29:21;;;;;;;6.53;3.10;;;26.20;95.30;;;;;;5121100;28;20275;-53
2022/08/21 12:31:54;;;;;;;6.60;3.42;;;26.20;96.10;;;;;;5111204;28;20265;-52
2022/08/21 12:34:27;;;;;;;5.82;2.88;;;26.40;96.50;;;;;;5120460;28;20207;-53
2022/08/21 12:36:59;;;;;;;6.93;2.85;;;26.50;96.30;;;;;;5122668;28;20775;-52
2022/08/21 12:39:31;;;;;;;6.75;3.05;;;26.60;95.80;;;;;;5124052;28;20212;-53
2022/08/21 12:42:06;;;;;;;5.63;2.95;;;26.50;95.30;;;;;;5120592;28;20250;-53
2022/08/21 12:44:41;;;;;;;6.30;2.92;;;26.50;95.60;;;;;;5121679;28;20198;-52
2022/08/21 12:47:17;;;;;;;5.97;2.97;;;26.50;95.70;;;;;;5093748;28;20260;-53
2022/08/21 12:49:56;;;;;;;7.85;3.15;;;26.40;94.50;;;;;;5110474;28;20211;-52
2022/08/21 12:52:31;;;;;;;6.35;3.40;;;26.10;93.70;;;;;;5111492;28;20235;-52
2022/08/21 12:55:08;;;;;;;4.78;3.10;;;25.90;94.40;;;;;;5127120;27;20238;-53
2022/08/21 12:57:38;;;;;;;5.70;3.55;;;25.70;94.20;;;;;;5128623;27;20199;-53
2022/08/21 13:00:11;;;;;;;4.00;2.90;;;25.60;94.40;;;;;;5125364;27;20267;-51
2022/08/21 13:02:43;;;;;;;5.50;2.60;;;25.50;95.10;;;;;;5119677;27;20234;-52
2022/08/21 13:05:15;;;;;;;4.82;2.90;;;25.50;96.20;;;;;;5115367;27;20667;-53
2022/08/21 13:07:47;;;;;;;5.25;3.00;;;25.50;96.40;;;;;;5131872;27;20574;-53